Time;durP1;ratioP1;P1;durP2;ratioP2;P2;SDS_P1;SDS_P2;PMS_P1;PMS_P2;Temp;Humidity;BMP_temperature;BMP_pressure;BME280_temperature;BME280_humidity;BME280_pressure;Samples;Min_cycle;Max_cycle;Signal;HPM_P1;HPM_P2
2023/10/14 00:02:13;;;;;;;0.98;0.93;;;22.20;71.80;;;;;;5132014;27;20026;-76
2023/10/14 00:04:41;;;;;;;4.72;2.10;;;22.20;71.60;;;;;;5132278;27;20030;-74
2023/10/14 00:07:08;;;;;;;2.92;0.95;;;22.30;71.60;;;;;;5132036;28;20101;-76
2023/10/14 00:09:42;;;;;;;2.97;1.35;;;22.30;71.50;;;;;;5132376;27;20024;-76
2023/10/14 00:12:13;;;;;;;1.98;1.52;;;22.20;71.40;;;;;;5132059;27;20042;-76
2023/10/14 00:14:40;;;;;;;2.75;2.13;;;22.20;71.30;;;;;;5132515;27;20019;-76
2023/10/14 00:17:11;;;;;;;0.45;0.45;;;22.20;71.20;;;;;;5132147;27;20023;-77
2023/10/14 00:19:37;;;;;;;1.10;1.00;;;22.20;71.20;;;;;;5132632;27;20482;-76
2023/10/14 00:22:05;;;;;;;1.48;0.93;;;22.20;71.10;;;;;;5132060;27;20020;-76
2023/10/14 00:24:31;;;;;;;1.25;1.15;;;22.20;71.00;;;;;;5132194;27;20027;-76
2023/10/14 00:26:57;;;;;;;1.20;1.10;;;22.20;70.90;;;;;;5132083;27;20027;-76
2023/10/14 00:29:23;;;;;;;1.17;1.08;;;22.20;71.00;;;;;;5131982;27;20027;-68
2023/10/14 00:31:50;;;;;;;1.35;1.25;;;22.20;71.00;;;;;;5131796;28;20023;-68
2023/10/14 00:34:25;;;;;;;0.75;0.75;;;22.30;70.70;;;;;;5131922;27;20457;-68
2023/10/14 00:36:53;;;;;;;1.10;1.05;;;22.30;70.70;;;;;;5131162;27;20042;-68
2023/10/14 00:39:28;;;;;;;0.80;0.80;;;22.30;70.20;;;;;;5152679;27;20023;-69
2023/10/14 00:41:55;;;;;;;1.08;1.08;;;22.40;70.10;;;;;;5152416;27;20031;-68
2023/10/14 00:44:27;;;;;;;0.60;0.60;;;22.30;70.10;;;;;;5152474;27;20053;-67
2023/10/14 00:46:55;;;;;;;0.93;0.93;;;22.30;70.20;;;;;;5152297;27;20101;-68
2023/10/14 00:49:23;;;;;;;0.95;0.93;;;22.30;70.20;;;;;;5152345;27;20031;-68
2023/10/14 00:51:57;;;;;;;0.70;0.70;;;22.30;70.30;;;;;;5152184;27;20035;-68
2023/10/14 00:57:20;;;;;;;0.80;0.80;;;22.30;70.30;;;;;;5153031;27;20031;-68
2023/10/14 00:59:50;;;;;;;0.70;0.70;;;22.20;70.00;;;;;;5156432;27;20034;-68
2023/10/14 01:02:29;;;;;;;1.80;1.70;;;22.30;70.20;;;;;;5156626;27;20027;-75
2023/10/14 01:04:55;;;;;;;1.25;1.15;;;22.30;70.10;;;;;;5156278;27;20034;-75
2023/10/14 01:07:21;;;;;;;1.73;0.90;;;22.30;70.30;;;;;;5155837;27;20019;-74
2023/10/14 01:09:53;;;;;;;8.57;2.03;;;22.20;70.20;;;;;;5154770;27;20318;-74
2023/10/14 01:15:10;;;;;;;0.65;0.65;;;22.20;69.80;;;;;;5156111;27;20459;-74
2023/10/14 01:17:35;;;;;;;1.85;1.65;;;22.20;70.10;;;;;;5156102;27;20035;-74
2023/10/14 01:22:50;;;;;;;11.75;2.00;;;22.20;70.10;;;;;;5155885;27;20031;-74
2023/10/14 01:25:15;;;;;;;1.85;1.38;;;22.30;70.00;;;;;;5155904;27;20472;-74
2023/10/14 01:27:43;;;;;;;0.90;0.90;;;22.30;70.10;;;;;;5155440;27;20086;-73
2023/10/14 01:30:18;;;;;;;1.30;0.80;;;22.30;70.10;;;;;;5155793;27;20022;-73
2023/10/14 01:35:24;;;;;;;1.50;1.35;;;22.40;70.00;;;;;;5155894;27;20038;-74
2023/10/14 01:37:54;;;;;;;1.10;1.00;;;22.30;68.90;;;;;;5146239;27;20141;-74
2023/10/14 01:42:58;;;;;;;0.50;0.50;;;21.30;69.20;;;;;;5134995;27;20384;-75
2023/10/14 01:45:29;;;;;;;0.40;0.40;;;21.00;70.00;;;;;;5135126;27;20264;-75
2023/10/14 01:50:44;;;;;;;;;;;20.70;71.10;;;;;;5134794;27;20476;-76
2023/10/14 01:53:11;;;;;;;0.60;0.60;;;20.50;71.10;;;;;;5134386;27;19911;-74
2023/10/14 01:55:42;;;;;;;0.40;0.40;;;20.40;70.70;;;;;;5134854;27;20108;-76
2023/10/14 01:58:12;;;;;;;0.40;0.40;;;20.10;70.20;;;;;;5134260;27;20055;-75
2023/10/14 02:00:39;;;;;;;0.38;0.38;;;19.80;70.00;;;;;;5134788;27;20027;-76
2023/10/14 02:03:06;;;;;;;0.50;0.50;;;19.60;70.00;;;;;;5134176;27;20035;-75
2023/10/14 02:05:34;;;;;;;0.30;0.30;;;19.30;70.00;;;;;;5134362;27;20148;-75
2023/10/14 02:08:00;;;;;;;0.50;0.50;;;19.10;70.30;;;;;;5134084;27;20486;-75
2023/10/14 02:10:27;;;;;;;0.50;0.50;;;18.90;70.80;;;;;;5133909;27;20049;-75
2023/10/14 02:12:54;;;;;;;0.30;0.30;;;18.80;70.60;;;;;;5134069;27;20023;-75
2023/10/14 02:15:19;;;;;;;0.40;0.40;;;18.60;70.70;;;;;;5133890;27;20011;-76
2023/10/14 02:17:47;;;;;;;0.50;0.50;;;18.50;70.90;;;;;;5133852;27;20484;-76
2023/10/14 02:20:27;;;;;;;0.50;0.50;;;18.40;71.20;;;;;;5134241;27;20508;-76
2023/10/14 02:22:57;;;;;;;0.50;0.50;;;18.30;71.40;;;;;;5133918;27;20076;-77
2023/10/14 02:25:27;;;;;;;0.40;0.40;;;18.20;71.50;;;;;;5134276;27;20480;-76
2023/10/14 02:27:54;;;;;;;0.40;0.40;;;18.20;71.90;;;;;;5132883;27;20031;-77
2023/10/14 02:30:19;;;;;;;0.40;0.40;;;18.20;72.10;;;;;;5133998;27;20075;-76
2023/10/14 02:32:45;;;;;;;0.40;0.40;;;18.10;72.00;;;;;;5133545;27;20031;-76
2023/10/14 02:35:15;;;;;;;0.50;0.50;;;18.10;72.20;;;;;;5133920;27;20459;-77
2023/10/14 02:37:41;;;;;;;0.43;0.43;;;18.10;72.10;;;;;;5141161;27;20026;-77
2023/10/14 02:40:12;;;;;;;0.40;0.40;;;18.00;71.80;;;;;;5154488;27;20075;-76
2023/10/14 02:42:39;;;;;;;0.40;0.40;;;18.00;71.90;;;;;;5154069;27;20031;-76
2023/10/14 02:45:12;;;;;;;0.40;0.40;;;17.90;72.00;;;;;;5154644;27;20475;-77
2023/10/14 02:47:38;;;;;;;0.32;0.32;;;17.90;72.30;;;;;;5152628;27;20238;-75
2023/10/14 02:50:11;;;;;;;0.40;0.40;;;17.90;72.40;;;;;;5154545;27;20474;-76
2023/10/14 02:52:40;;;;;;;0.40;0.40;;;17.90;72.60;;;;;;5154157;27;20074;-76
2023/10/14 02:55:25;;;;;;;0.40;0.40;;;18.00;72.50;;;;;;5154417;27;20029;-76
2023/10/14 02:57:51;;;;;;;0.30;0.30;;;17.90;72.30;;;;;;5153971;27;20023;-77
2023/10/14 03:00:23;;;;;;;0.40;0.40;;;17.90;72.30;;;;;;5154151;27;20379;-76
2023/10/14 03:02:54;;;;;;;0.50;0.50;;;17.80;72.40;;;;;;5153863;27;20074;-77
2023/10/14 03:05:33;;;;;;;;;;;17.80;72.20;;;;;;5154584;27;20086;-76
2023/10/14 03:08:08;;;;;;;0.40;0.40;;;17.80;72.30;;;;;;5153765;27;19925;-76
2023/10/14 03:10:36;;;;;;;0.43;0.43;;;17.80;72.50;;;;;;5154993;27;20023;-76
2023/10/14 03:13:02;;;;;;;0.50;0.50;;;17.80;72.60;;;;;;5154666;27;20035;-76
2023/10/14 03:15:31;;;;;;;0.40;0.40;;;17.80;72.60;;;;;;5155130;27;20029;-77
2023/10/14 03:17:58;;;;;;;0.47;0.47;;;17.80;72.60;;;;;;5154485;27;20019;-77
2023/10/14 03:22:56;;;;;;;0.40;0.40;;;17.80;72.60;;;;;;5153746;27;20095;-77
2023/10/14 03:25:24;;;;;;;0.40;0.40;;;17.80;72.60;;;;;;5154518;27;20083;-77
2023/10/14 03:27:51;;;;;;;0.40;0.40;;;17.80;72.70;;;;;;5154022;27;20502;-78
2023/10/14 03:30:20;;;;;;;0.70;0.70;;;17.80;72.40;;;;;;5154722;27;20027;-77
2023/10/14 03:32:46;;;;;;;0.50;0.50;;;17.90;72.30;;;;;;5154108;27;20031;-77
2023/10/14 03:35:20;;;;;;;0.40;0.40;;;17.80;72.30;;;;;;5152746;27;20387;-76
2023/10/14 03:37:52;;;;;;;0.38;0.38;;;17.80;72.20;;;;;;5145596;27;20499;-77
2023/10/14 03:43:10;;;;;;;0.50;0.50;;;17.60;71.00;;;;;;5132994;27;20037;-77
2023/10/14 03:45:46;;;;;;;0.50;0.50;;;17.30;70.60;;;;;;5133655;27;20023;-77
2023/10/14 03:48:13;;;;;;;0.40;0.40;;;17.10;70.20;;;;;;5133069;27;20031;-75
2023/10/14 03:50:39;;;;;;;0.40;0.40;;;16.90;70.80;;;;;;5132986;27;20019;-77
2023/10/14 03:53:05;;;;;;;0.50;0.50;;;16.80;71.20;;;;;;5133224;27;20116;-76
2023/10/14 03:55:31;;;;;;;0.50;0.50;;;16.70;71.50;;;;;;5132317;27;20023;-76
2023/10/14 03:58:04;;;;;;;1.42;0.60;;;16.70;71.60;;;;;;5133259;27;20027;-76
2023/10/14 04:00:37;;;;;;;0.40;0.40;;;16.70;71.80;;;;;;5133887;27;20083;-77
2023/10/14 04:03:13;;;;;;;0.40;0.40;;;16.70;71.80;;;;;;5134006;27;20512;-77
2023/10/14 04:05:52;;;;;;;0.40;0.40;;;16.70;71.70;;;;;;5133866;27;20467;-77
2023/10/14 04:08:25;;;;;;;0.43;0.43;;;16.70;71.60;;;;;;5133346;27;20023;-78
2023/10/14 04:10:55;;;;;;;0.40;0.40;;;16.60;71.60;;;;;;5133878;27;20464;-77
2023/10/14 04:13:21;;;;;;;0.60;0.60;;;16.60;71.80;;;;;;5132307;28;20039;-77
2023/10/14 04:15:53;;;;;;;0.40;0.40;;;16.70;71.80;;;;;;5133191;27;20071;-77
2023/10/14 04:18:25;;;;;;;0.40;0.40;;;16.70;71.60;;;;;;5133623;27;20128;-77
2023/10/14 04:23:41;;;;;;;2.05;1.13;;;16.70;71.80;;;;;;5133632;27;20051;-78
2023/10/14 04:26:12;;;;;;;0.40;0.40;;;16.70;71.50;;;;;;5133724;27;20023;-78
2023/10/14 04:28:53;;;;;;;0.50;0.50;;;16.70;71.70;;;;;;5132339;27;20414;-78
2023/10/14 04:31:26;;;;;;;0.40;0.40;;;16.70;71.70;;;;;;5133214;27;20034;-78
2023/10/14 04:33:54;;;;;;;0.40;0.40;;;16.70;71.70;;;;;;5137405;27;20027;-78
2023/10/14 04:36:53;;;;;;;0.40;0.40;;;16.70;71.70;;;;;;5136057;27;20027;-78
2023/10/14 04:39:15;;;;;;;0.47;0.47;;;16.70;71.50;;;;;;5156480;27;20125;-70
2023/10/14 04:41:47;;;;;;;0.60;0.60;;;16.60;71.20;;;;;;5156500;27;20479;-69
2023/10/14 04:44:13;;;;;;;0.40;0.40;;;16.40;71.00;;;;;;5156609;27;20022;-70
2023/10/14 04:47:01;;;;;;;0.50;0.50;;;16.40;70.80;;;;;;5156299;27;20023;-69
2023/10/14 04:49:51;;;;;;;0.43;0.43;;;16.30;70.60;;;;;;5156431;27;20082;-69
2023/10/14 04:52:18;;;;;;;0.40;0.40;;;16.20;70.60;;;;;;5156156;27;20253;-70
2023/10/14 04:54:54;;;;;;;0.40;0.40;;;16.10;70.40;;;;;;5156383;27;20030;-70
2023/10/14 04:57:21;;;;;;;0.50;0.50;;;16.00;70.10;;;;;;5156252;27;20034;-69
2023/10/14 04:59:54;;;;;;;0.45;0.45;;;15.90;69.90;;;;;;5155976;27;20403;-70
2023/10/14 05:02:24;;;;;;;0.47;0.47;;;15.70;69.60;;;;;;5156154;27;20095;-69
2023/10/14 05:04:51;;;;;;;0.40;0.40;;;15.70;69.50;;;;;;5156300;27;20030;-69
2023/10/14 05:07:20;;;;;;;0.40;0.40;;;15.50;69.10;;;;;;5155736;27;20499;-70
2023/10/14 05:09:56;;;;;;;0.40;0.40;;;15.40;69.00;;;;;;5156116;27;20030;-69
2023/10/14 05:12:24;;;;;;;0.40;0.40;;;15.30;68.70;;;;;;5155969;27;20498;-69
2023/10/14 05:14:52;;;;;;;0.40;0.40;;;15.20;68.80;;;;;;5155999;27;20109;-69
2023/10/14 05:17:18;;;;;;;0.40;0.40;;;15.00;68.90;;;;;;5155996;27;20215;-69
2023/10/14 05:19:47;;;;;;;0.40;0.40;;;15.00;69.30;;;;;;5155807;27;20034;-69
2023/10/14 05:22:18;;;;;;;0.50;0.50;;;14.90;69.20;;;;;;5155605;27;20019;-69
2023/10/14 05:24:48;;;;;;;0.50;0.50;;;14.80;69.40;;;;;;5155929;27;20050;-69
2023/10/14 05:27:18;;;;;;;0.47;0.47;;;14.80;69.40;;;;;;5155680;27;20399;-69
2023/10/14 05:29:50;;;;;;;0.50;0.50;;;14.70;69.40;;;;;;5155601;27;20023;-69
2023/10/14 05:32:23;;;;;;;0.40;0.40;;;14.70;69.30;;;;;;5155388;27;20026;-70
2023/10/14 05:34:50;;;;;;;0.40;0.40;;;14.60;69.60;;;;;;5155654;27;20425;-70
2023/10/14 05:37:16;;;;;;;0.40;0.40;;;14.60;69.80;;;;;;5150922;27;20031;-70
2023/10/14 05:39:43;;;;;;;0.50;0.50;;;14.60;69.90;;;;;;5133091;27;20034;-71
2023/10/14 05:42:21;;;;;;;0.40;0.40;;;14.60;69.80;;;;;;5134753;27;20035;-70
2023/10/14 05:44:47;;;;;;;0.50;0.50;;;14.60;69.90;;;;;;5133766;27;20436;-70
2023/10/14 05:47:17;;;;;;;0.40;0.40;;;14.50;69.90;;;;;;5134188;27;20046;-70
2023/10/14 05:53:07;;;;;;;0.40;0.40;;;14.50;70.40;;;;;;5135008;27;20030;-69
2023/10/14 05:55:33;;;;;;;0.50;0.50;;;14.50;70.50;;;;;;5134821;27;20027;-70
2023/10/14 05:58:00;;;;;;;0.40;0.40;;;14.50;70.40;;;;;;5134629;27;20028;-70
2023/10/14 06:00:29;;;;;;;0.40;0.40;;;14.50;70.30;;;;;;5134606;27;20523;-70
2023/10/14 06:02:56;;;;;;;0.47;0.47;;;14.40;70.20;;;;;;5134304;27;20076;-69
2023/10/14 06:05:31;;;;;;;0.50;0.50;;;14.50;70.50;;;;;;5134060;27;20050;-69
2023/10/14 06:08:00;;;;;;;0.50;0.50;;;14.60;70.70;;;;;;5134089;27;20080;-69
2023/10/14 06:10:29;;;;;;;0.50;0.50;;;14.70;71.00;;;;;;5134406;27;20084;-69
2023/10/14 06:12:56;;;;;;;0.50;0.50;;;14.80;71.20;;;;;;5133990;27;20027;-69
2023/10/14 06:15:22;;;;;;;0.50;0.50;;;15.00;71.20;;;;;;5134351;27;20088;-70
2023/10/14 06:17:49;;;;;;;0.50;0.50;;;15.20;71.20;;;;;;5133852;27;20451;-69
2023/10/14 06:20:16;;;;;;;0.40;0.40;;;15.30;71.20;;;;;;5134417;27;20110;-70
2023/10/14 06:22:43;;;;;;;0.40;0.40;;;15.50;71.20;;;;;;5133713;27;20034;-71
2023/10/14 06:25:16;;;;;;;0.40;0.40;;;15.70;71.30;;;;;;5134217;27;20110;-70
2023/10/14 06:27:48;;;;;;;0.40;0.40;;;15.90;71.40;;;;;;5133724;27;20030;-71
2023/10/14 06:30:21;;;;;;;0.50;0.50;;;16.20;71.50;;;;;;5133987;27;20023;-70
2023/10/14 06:33:05;;;;;;;0.40;0.40;;;16.40;71.60;;;;;;5133850;27;20361;-69
2023/10/14 06:35:32;;;;;;;0.47;0.47;;;16.70;71.40;;;;;;5133896;27;20027;-69
2023/10/14 06:37:58;;;;;;;0.40;0.40;;;16.80;70.80;;;;;;5133278;27;20483;-69
2023/10/14 06:40:24;;;;;;;0.50;0.50;;;17.00;71.00;;;;;;5133724;27;20083;-69
2023/10/14 06:42:50;;;;;;;0.40;0.40;;;17.20;71.40;;;;;;5133472;27;20020;-69
2023/10/14 06:45:31;;;;;;;0.50;0.50;;;17.40;71.60;;;;;;5132137;27;20053;-69
2023/10/14 06:48:03;;;;;;;0.50;0.50;;;17.70;71.90;;;;;;5133248;27;20031;-69
2023/10/14 06:50:29;;;;;;;0.50;0.50;;;18.10;71.80;;;;;;5133665;27;20031;-69
2023/10/14 06:52:58;;;;;;;0.40;0.40;;;18.30;71.90;;;;;;5133025;27;20106;-69
2023/10/14 06:55:26;;;;;;;0.45;0.45;;;18.60;71.90;;;;;;5133255;27;20035;-70
2023/10/14 06:57:53;;;;;;;0.40;0.40;;;18.90;71.80;;;;;;5133289;27;20499;-69
2023/10/14 07:00:25;;;;;;;0.50;0.50;;;19.20;71.90;;;;;;5133476;27;20023;-78
2023/10/14 07:02:53;;;;;;;0.43;0.43;;;19.40;71.90;;;;;;5133607;27;20400;-77
2023/10/14 07:05:19;;;;;;;0.40;0.40;;;19.70;71.80;;;;;;5133374;27;20483;-77
2023/10/14 07:07:46;;;;;;;1.10;0.95;;;19.90;71.90;;;;;;5132697;27;20023;-77
2023/10/14 07:10:13;;;;;;;0.50;0.50;;;20.20;71.80;;;;;;5133306;27;20683;-76
2023/10/14 07:12:38;;;;;;;0.40;0.40;;;20.40;71.80;;;;;;5134026;27;20254;-77
2023/10/14 07:15:12;;;;;;;0.40;0.40;;;20.70;71.80;;;;;;5132929;27;20039;-77
2023/10/14 07:17:39;;;;;;;0.40;0.40;;;20.90;71.60;;;;;;5134055;27;20042;-77
2023/10/14 07:20:07;;;;;;;0.50;0.50;;;21.20;71.40;;;;;;5134020;27;20472;-77
2023/10/14 07:22:32;;;;;;;0.80;0.80;;;21.40;71.70;;;;;;5134056;27;20054;-76
2023/10/14 07:24:58;;;;;;;0.43;0.43;;;21.60;71.60;;;;;;5134096;27;20050;-76
2023/10/14 07:27:24;;;;;;;0.43;0.43;;;21.90;71.30;;;;;;5133911;27;20034;-76
2023/10/14 07:29:49;;;;;;;0.32;0.32;;;22.10;70.90;;;;;;5134054;27;20106;-76
2023/10/14 07:32:19;;;;;;;0.50;0.50;;;22.30;71.10;;;;;;5134041;27;20038;-75
2023/10/14 07:34:45;;;;;;;0.47;0.47;;;22.40;71.00;;;;;;5134926;27;20042;-75
2023/10/14 07:37:13;;;;;;;0.40;0.40;;;22.60;71.40;;;;;;5138117;27;20030;-75
2023/10/14 07:39:39;;;;;;;0.40;0.40;;;22.90;71.80;;;;;;5155496;27;20027;-75
2023/10/14 07:42:13;;;;;;;0.40;0.40;;;23.10;71.50;;;;;;5154560;27;20039;-75
2023/10/14 07:44:39;;;;;;;0.43;0.43;;;23.30;71.90;;;;;;5154166;27;20371;-75
2023/10/14 07:47:05;;;;;;;0.50;0.50;;;23.50;70.60;;;;;;5154334;27;20039;-74
2023/10/14 07:49:33;;;;;;;0.32;0.32;;;23.40;69.70;;;;;;5155388;27;20082;-74
2023/10/14 07:52:00;;;;;;;0.40;0.40;;;23.30;69.20;;;;;;5155301;27;20030;-74
2023/10/14 07:54:29;;;;;;;0.47;0.47;;;23.10;68.60;;;;;;5155917;27;20031;-74
2023/10/14 07:56:55;;;;;;;0.50;0.50;;;22.80;68.70;;;;;;5157092;27;20106;-74
2023/10/14 07:59:20;;;;;;;0.50;0.50;;;22.80;70.00;;;;;;5159717;27;20558;-74
2023/10/14 08:01:47;;;;;;;0.50;0.50;;;22.80;70.70;;;;;;5167962;27;20023;-74
2023/10/14 08:04:14;;;;;;;2.50;0.80;;;22.80;68.40;;;;;;5171041;27;20027;-74
2023/10/14 08:06:41;;;;;;;0.40;0.40;;;22.40;68.10;;;;;;5170306;27;20143;-73
2023/10/14 08:09:23;;;;;;;0.98;0.98;;;22.30;70.10;;;;;;5172595;27;20026;-68
2023/10/14 08:11:50;;;;;;;0.47;0.47;;;22.50;72.00;;;;;;5158456;27;20019;-67
2023/10/14 08:14:15;;;;;;;0.50;0.50;;;22.90;73.20;;;;;;5159727;27;20122;-67
2023/10/14 08:16:41;;;;;;;0.50;0.50;;;23.30;73.60;;;;;;5159727;27;20056;-69
2023/10/14 08:19:10;;;;;;;0.50;0.50;;;23.70;71.90;;;;;;5159658;27;20042;-68
2023/10/14 08:21:36;;;;;;;0.52;0.52;;;23.80;71.30;;;;;;5159702;27;20019;-68
2023/10/14 08:24:05;;;;;;;0.40;0.40;;;24.00;72.00;;;;;;5159385;27;20027;-69
2023/10/14 08:26:34;;;;;;;0.40;0.40;;;24.20;70.70;;;;;;5159514;27;20023;-68
2023/10/14 08:29:00;;;;;;;1.02;1.00;;;24.30;69.70;;;;;;5159472;27;20019;-68
2023/10/14 08:31:26;;;;;;;0.60;0.60;;;24.50;70.20;;;;;;5158226;27;20031;-68
2023/10/14 08:33:51;;;;;;;4.13;1.45;;;24.70;70.20;;;;;;5159398;27;20365;-68
2023/10/14 08:36:17;;;;;;;0.75;0.75;;;24.80;70.10;;;;;;5159669;27;20456;-68
2023/10/14 08:38:44;;;;;;;0.50;0.50;;;25.00;70.10;;;;;;5158015;27;20455;-68
2023/10/14 08:41:14;;;;;;;0.40;0.40;;;25.30;69.60;;;;;;5159314;27;20030;-69
2023/10/14 08:43:44;;;;;;;0.50;0.50;;;25.40;68.90;;;;;;5159331;27;20361;-68
2023/10/14 08:46:13;;;;;;;0.60;0.60;;;25.50;69.30;;;;;;5159352;27;20057;-69
2023/10/14 08:48:42;;;;;;;0.75;0.75;;;25.80;69.60;;;;;;5159263;27;20159;-67
2023/10/14 08:51:09;;;;;;;0.50;0.50;;;26.00;68.80;;;;;;5159188;27;20049;-68
2023/10/14 08:53:40;;;;;;;0.60;0.60;;;26.20;68.00;;;;;;5159332;27;20429;-67
2023/10/14 08:56:07;;;;;;;;;;;26.30;66.80;;;;;;5160248;27;20019;-68
2023/10/14 08:58:36;;;;;;;0.40;0.40;;;26.10;65.40;;;;;;5159104;27;20017;-67
2023/10/14 09:01:03;;;;;;;0.52;0.52;;;26.00;65.70;;;;;;5159071;27;20026;-68
2023/10/14 09:03:30;;;;;;;2.78;0.90;;;25.70;64.50;;;;;;5159211;27;20365;-69
2023/10/14 09:05:56;;;;;;;0.50;0.50;;;25.30;65.30;;;;;;5159768;27;20115;-68
2023/10/14 09:08:22;;;;;;;1.75;1.00;;;25.10;65.10;;;;;;5159445;27;20023;-68
2023/10/14 09:10:49;;;;;;;0.50;0.50;;;25.00;65.50;;;;;;5159757;27;20349;-69
2023/10/14 09:13:22;;;;;;;0.63;0.63;;;24.90;66.60;;;;;;5158975;27;20030;-69
2023/10/14 09:15:48;;;;;;;0.40;0.40;;;25.00;67.10;;;;;;5159708;27;20022;-68
2023/10/14 09:18:18;;;;;;;0.40;0.40;;;25.00;66.60;;;;;;5158400;27;20061;-69
2023/10/14 09:20:45;;;;;;;0.40;0.40;;;25.00;64.90;;;;;;5170656;27;20041;-73
2023/10/14 09:23:32;;;;;;;0.40;0.40;;;24.80;65.80;;;;;;5175646;27;20027;-72
2023/10/14 09:25:59;;;;;;;0.40;0.40;;;25.00;68.60;;;;;;5175055;27;20049;-73
2023/10/14 09:28:33;;;;;;;0.40;0.40;;;25.40;69.10;;;;;;5173479;27;20026;-72
2023/10/14 09:31:00;;;;;;;0.40;0.40;;;25.80;69.10;;;;;;5171912;27;20027;-71
2023/10/14 09:33:32;;;;;;;2.58;0.75;;;26.20;68.40;;;;;;5172248;27;20060;-73
2023/10/14 09:36:03;;;;;;;0.45;0.45;;;26.40;66.70;;;;;;5172063;27;20027;-73
2023/10/14 09:38:32;;;;;;;0.40;0.40;;;26.70;65.80;;;;;;5171248;27;20031;-72
2023/10/14 09:41:03;;;;;;;0.40;0.40;;;26.70;64.30;;;;;;5172558;27;20038;-73
2023/10/14 09:43:29;;;;;;;0.60;0.60;;;26.80;65.50;;;;;;5173337;27;20029;-72
2023/10/14 09:45:56;;;;;;;1.02;1.02;;;27.00;64.10;;;;;;5173454;27;20033;-73
2023/10/14 09:48:25;;;;;;;0.43;0.43;;;27.20;63.00;;;;;;5174512;27;20043;-73
2023/10/14 09:50:54;;;;;;;1.35;1.25;;;27.30;62.00;;;;;;5173223;27;20038;-73
2023/10/14 09:53:28;;;;;;;0.50;0.50;;;27.30;61.00;;;;;;5175170;27;20502;-73
2023/10/14 09:56:04;;;;;;;1.45;1.02;;;27.20;60.10;;;;;;5173591;27;20034;-73
2023/10/14 09:58:31;;;;;;;0.60;0.60;;;27.20;60.90;;;;;;5171989;27;20025;-73
2023/10/14 10:01:03;;;;;;;1.88;1.75;;;27.10;59.50;;;;;;5171345;27;20034;-72
2023/10/14 10:03:44;;;;;;;0.40;0.40;;;26.90;58.30;;;;;;5169821;27;20048;-73
2023/10/14 10:06:12;;;;;;;;;;;26.40;58.00;;;;;;5169505;27;20041;-73
2023/10/14 10:09:22;;;;;;;0.47;0.47;;;26.20;58.70;;;;;;5166533;27;19929;-73
2023/10/14 10:11:51;;;;;;;0.70;0.70;;;26.20;60.30;;;;;;5151304;27;20053;-73
2023/10/14 10:14:19;;;;;;;0.50;0.50;;;26.30;59.90;;;;;;5164254;27;20052;-73
2023/10/14 10:16:50;;;;;;;0.55;0.55;;;26.40;60.70;;;;;;5163892;27;20052;-73
2023/10/14 10:19:15;;;;;;;0.47;0.47;;;26.70;60.30;;;;;;5163582;27;20039;-73
2023/10/14 10:22:14;;;;;;;0.68;0.68;;;26.80;58.60;;;;;;5164220;27;20026;-73
2023/10/14 10:24:45;;;;;;;0.47;0.47;;;26.80;57.00;;;;;;5167303;27;20086;-73
2023/10/14 10:27:11;;;;;;;0.50;0.50;;;26.60;55.40;;;;;;5166202;27;20510;-73
2023/10/14 10:29:51;;;;;;;0.60;0.60;;;26.20;57.80;;;;;;5164172;27;20031;-71
2023/10/14 10:32:21;;;;;;;0.50;0.50;;;26.20;57.10;;;;;;5164456;27;20395;-71
2023/10/14 10:35:05;;;;;;;0.50;0.50;;;26.10;55.20;;;;;;5162638;27;20034;-72
2023/10/14 10:37:46;;;;;;;0.50;0.50;;;26.00;57.20;;;;;;5155239;27;20552;-71
2023/10/14 10:40:13;;;;;;;0.40;0.40;;;25.80;55.90;;;;;;5138415;27;20027;-71
2023/10/14 10:42:42;;;;;;;0.70;0.70;;;25.60;56.80;;;;;;5136237;27;20026;-72
2023/10/14 10:45:14;;;;;;;0.60;0.60;;;25.70;56.10;;;;;;5137754;27;20670;-69
2023/10/14 10:47:56;;;;;;;3.53;1.20;;;25.90;57.40;;;;;;5133411;27;20480;-68
2023/10/14 10:50:37;;;;;;;5.70;0.82;;;26.20;59.00;;;;;;5133516;27;20492;-69
2023/10/14 10:53:08;;;;;;;;;;;26.50;55.70;;;;;;5133867;27;20061;-69
2023/10/14 10:55:48;;;;;;;0.93;0.93;;;26.60;56.30;;;;;;5133765;27;19908;-69
2023/10/14 10:58:15;;;;;;;0.70;0.70;;;26.80;56.50;;;;;;5132963;27;20072;-68
2023/10/14 11:00:46;;;;;;;0.55;0.55;;;26.70;52.60;;;;;;5133589;27;20430;-69
2023/10/14 11:03:16;;;;;;;0.60;0.60;;;26.30;52.40;;;;;;5132955;27;20044;-68
2023/10/14 11:05:46;;;;;;;0.80;0.80;;;26.00;52.80;;;;;;5133493;27;20492;-70
2023/10/14 11:08:15;;;;;;;0.85;0.85;;;25.60;54.10;;;;;;5132861;27;20037;-69
2023/10/14 11:10:42;;;;;;;0.60;0.60;;;25.30;54.50;;;;;;5133389;27;20027;-69
2023/10/14 11:13:12;;;;;;;0.40;0.40;;;25.30;55.30;;;;;;5146400;27;20022;-70
2023/10/14 11:15:43;;;;;;;0.97;0.97;;;25.30;56.40;;;;;;5146634;27;20023;-69
2023/10/14 11:18:10;;;;;;;0.45;0.45;;;25.30;52.80;;;;;;5133209;27;20098;-69
2023/10/14 11:20:46;;;;;;;0.52;0.52;;;25.20;53.90;;;;;;5131464;27;20080;-69
2023/10/14 11:23:12;;;;;;;0.40;0.40;;;24.90;55.00;;;;;;5147056;27;20015;-69
2023/10/14 11:26:05;;;;;;;0.93;0.93;;;24.70;52.90;;;;;;5146626;27;20511;-68
2023/10/14 11:28:31;;;;;;;0.60;0.60;;;24.20;52.20;;;;;;5132714;27;20104;-69
2023/10/14 11:30:57;;;;;;;0.40;0.40;;;24.00;53.10;;;;;;5132745;27;20031;-69
2023/10/14 11:33:23;;;;;;;0.50;0.50;;;23.80;52.60;;;;;;5148092;27;20383;-69
2023/10/14 11:35:51;;;;;;;0.88;0.88;;;23.50;52.50;;;;;;5144932;27;20463;-69
2023/10/14 11:38:17;;;;;;;0.40;0.40;;;23.10;54.00;;;;;;5131898;27;20027;-69
2023/10/14 11:40:49;;;;;;;0.50;0.50;;;22.80;53.50;;;;;;5133926;27;20024;-71
2023/10/14 11:43:16;;;;;;;2.25;1.00;;;22.50;53.90;;;;;;5146378;27;20151;-71
2023/10/14 11:45:44;;;;;;;0.40;0.40;;;22.30;53.50;;;;;;5147121;27;20532;-71
2023/10/14 11:48:25;;;;;;;0.38;0.38;;;22.30;54.50;;;;;;5133551;27;20391;-71
2023/10/14 11:51:02;;;;;;;0.50;0.50;;;22.50;54.60;;;;;;5135035;27;20023;-71
2023/10/14 11:53:33;;;;;;;0.50;0.50;;;22.60;55.50;;;;;;5134409;27;20019;-71
2023/10/14 11:56:00;;;;;;;2.05;0.70;;;22.80;52.60;;;;;;5132939;27;20034;-70
2023/10/14 11:58:35;;;;;;;0.40;0.40;;;23.00;51.90;;;;;;5150581;27;20022;-71
2023/10/14 12:01:00;;;;;;;0.50;0.50;;;23.10;51.40;;;;;;5155743;27;20026;-71
2023/10/14 12:03:26;;;;;;;0.50;0.50;;;23.20;50.40;;;;;;5154784;27;20018;-71
2023/10/14 12:05:59;;;;;;;0.50;0.50;;;23.30;50.10;;;;;;5153634;27;20057;-68
2023/10/14 12:08:26;;;;;;;0.50;0.50;;;23.50;52.10;;;;;;5152727;27;20018;-69
2023/10/14 12:10:53;;;;;;;0.43;0.43;;;23.70;51.30;;;;;;5153248;27;20467;-68
2023/10/14 12:13:19;;;;;;;0.60;0.60;;;23.80;51.60;;;;;;5151595;27;20054;-69
2023/10/14 12:15:46;;;;;;;1.05;0.93;;;24.00;50.90;;;;;;5153490;27;20034;-69
2023/10/14 12:18:14;;;;;;;0.50;0.50;;;24.10;48.90;;;;;;5150179;27;20391;-68
2023/10/14 12:20:41;;;;;;;1.13;0.68;;;24.10;48.00;;;;;;5153014;27;20443;-68
2023/10/14 12:23:07;;;;;;;0.50;0.50;;;24.10;47.30;;;;;;5140676;27;20016;-68
2023/10/14 12:25:32;;;;;;;0.50;0.50;;;24.00;46.30;;;;;;5131948;28;20046;-68
2023/10/14 12:27:58;;;;;;;0.57;0.57;;;23.80;47.40;;;;;;5136462;27;20050;-68
2023/10/14 12:30:58;;;;;;;0.98;0.90;;;23.80;47.10;;;;;;5135821;27;20031;-70
2023/10/14 12:33:22;;;;;;;0.55;0.55;;;23.70;47.90;;;;;;5134125;27;20388;-69
2023/10/14 12:35:51;;;;;;;0.50;0.50;;;23.60;47.00;;;;;;5132297;28;20518;-68
2023/10/14 12:38:20;;;;;;;0.50;0.50;;;23.40;45.50;;;;;;5135321;27;20048;-68
2023/10/14 12:40:48;;;;;;;0.82;0.77;;;23.20;43.90;;;;;;5132372;27;20459;-69
2023/10/14 12:43:18;;;;;;;0.40;0.40;;;23.00;45.10;;;;;;5136311;27;20517;-69
2023/10/14 12:45:49;;;;;;;0.60;0.60;;;22.70;44.70;;;;;;5132388;27;20035;-69
2023/10/14 12:48:15;;;;;;;2.60;0.93;;;22.50;43.30;;;;;;5131558;27;20121;-69
2023/10/14 12:50:41;;;;;;;0.60;0.60;;;22.30;43.50;;;;;;5132224;27;20043;-69
2023/10/14 12:53:08;;;;;;;0.65;0.65;;;22.00;42.10;;;;;;5137270;27;20360;-69
2023/10/14 12:55:35;;;;;;;0.40;0.40;;;21.80;42.60;;;;;;5136002;27;20035;-69
2023/10/14 12:58:02;;;;;;;0.50;0.50;;;21.70;43.30;;;;;;5135301;27;20019;-70
2023/10/14 13:00:31;;;;;;;0.40;0.40;;;21.70;43.70;;;;;;5136014;27;20031;-69
2023/10/14 13:02:57;;;;;;;0.40;0.40;;;21.60;43.30;;;;;;5140849;27;20051;-69
2023/10/14 13:05:25;;;;;;;0.40;0.40;;;21.40;42.80;;;;;;5135701;27;20034;-69
2023/10/14 13:07:52;;;;;;;0.40;0.40;;;21.30;43.10;;;;;;5135465;27;20559;-69
2023/10/14 13:10:28;;;;;;;0.60;0.60;;;21.30;42.60;;;;;;5135609;27;20036;-69
2023/10/14 13:12:55;;;;;;;0.40;0.40;;;21.20;42.90;;;;;;5140130;27;20015;-69
2023/10/14 13:15:30;;;;;;;0.43;0.43;;;21.20;42.40;;;;;;5133989;27;20035;-69
2023/10/14 13:18:05;;;;;;;1.65;0.85;;;21.10;42.50;;;;;;5135133;27;20556;-68
2023/10/14 13:20:32;;;;;;;0.65;0.65;;;21.10;42.70;;;;;;5135588;27;20091;-70
2023/10/14 13:23:09;;;;;;;0.40;0.40;;;21.00;42.00;;;;;;5139584;27;20023;-69
2023/10/14 13:25:36;;;;;;;0.55;0.55;;;21.00;41.70;;;;;;5135723;27;20023;-70
2023/10/14 13:28:09;;;;;;;0.50;0.50;;;21.00;41.30;;;;;;5135100;27;20052;-69
2023/10/14 13:30:45;;;;;;;0.40;0.40;;;21.00;41.50;;;;;;5135608;27;20050;-70